Time;durP1;ratioP1;P1;durP2;ratioP2;P2;SDS_P1;SDS_P2;PMS_P1;PMS_P2;Temp;Humidity;BMP_temperature;BMP_pressure;BME280_temperature;BME280_humidity;BME280_pressure;Samples;Min_cycle;Max_cycle;Signal;HPM_P1;HPM_P2
2021/12/31 00:02:22;;;;;;;;;24.75;19.50;;;;;12.28;75.52;101415.56;5045823;28;46495;-62
2021/12/31 00:04:48;;;;;;;;;20.25;19.00;;;;;12.25;75.28;101413.19;5058734;28;45316;-61
2021/12/31 00:07:13;;;;;;;;;23.50;19.75;;;;;12.25;75.13;101405.28;5048437;28;45511;-64
2021/12/31 00:09:39;;;;;;;;;29.00;24.75;;;;;12.25;75.41;101402.63;5046451;28;51381;-62
2021/12/31 00:12:07;;;;;;;;;19.00;17.75;;;;;12.24;75.52;101403.59;5048766;28;65179;-63
2021/12/31 00:14:33;;;;;;;;;23.50;21.25;;;;;12.23;75.61;101395.84;5048905;28;45525;-62
2021/12/31 00:16:58;;;;;;;;;25.25;22.25;;;;;12.21;75.27;101395.94;5067441;28;45516;-64
2021/12/31 00:19:26;;;;;;;;;22.25;18.75;;;;;12.20;75.22;101399.53;5052934;28;45482;-63
2021/12/31 00:21:51;;;;;;;;;22.25;20.00;;;;;12.20;75.11;101396.09;5046560;28;45542;-64
2021/12/31 00:24:17;;;;;;;;;21.75;16.25;;;;;12.19;75.54;101395.22;5058014;28;45570;-62
2021/12/31 00:26:42;;;;;;;;;20.50;20.50;;;;;12.18;75.45;101393.59;5041168;28;45346;-62
2021/12/31 00:29:07;;;;;;;;;18.50;15.25;;;;;12.17;75.45;101390.09;5040223;28;68816;-65
2021/12/31 00:31:33;;;;;;;;;21.00;16.75;;;;;12.15;75.21;101385.94;5043467;28;64281;-63
2021/12/31 00:33:58;;;;;;;;;22.00;18.00;;;;;12.15;74.96;101388.56;5045195;28;45258;-65
2021/12/31 00:36:38;;;;;;;;;18.00;18.00;;;;;12.14;74.78;101379.81;5047329;28;45431;-64
2021/12/31 00:39:03;;;;;;;;;17.50;14.25;;;;;12.12;75.22;101378.28;5055105;28;45428;-63
2021/12/31 00:41:29;;;;;;;;;18.50;14.50;;;;;12.11;74.97;101373.97;5052614;28;67647;-63
2021/12/31 00:43:54;;;;;;;;;17.00;15.25;;;;;12.08;74.23;101359.25;5053658;28;72845;-62
2021/12/31 00:46:19;;;;;;;;;27.75;19.00;;;;;12.06;74.37;101361.16;5051735;28;66927;-63
2021/12/31 00:48:45;;;;;;;;;21.25;16.00;;;;;12.04;74.46;101375.44;5052258;28;70538;-64
2021/12/31 00:51:10;;;;;;;;;21.00;19.50;;;;;12.02;74.96;101367.63;5057585;28;45345;-61
2021/12/31 00:53:35;;;;;;;;;18.00;15.50;;;;;12.00;74.36;101374.81;5058147;28;66933;-63
2021/12/31 00:56:01;;;;;;;;;16.50;15.75;;;;;11.98;74.28;101382.84;5058343;28;62570;-64
2021/12/31 00:58:27;;;;;;;;;16.00;16.00;;;;;11.95;73.34;101372.53;5058516;28;62437;-62
2021/12/31 01:00:52;;;;;;;;;17.75;15.75;;;;;11.92;73.46;101371.97;5058958;28;45386;-64
2021/12/31 01:03:17;;;;;;;;;13.25;13.25;;;;;11.87;73.13;101383.72;5058876;28;45377;-64
2021/12/31 01:05:43;;;;;;;;;14.25;13.75;;;;;11.83;72.50;101386.69;5058105;28;67846;-64
2021/12/31 01:08:08;;;;;;;;;11.50;11.50;;;;;11.76;72.57;101378.47;5058365;28;59792;-63
2021/12/31 01:10:34;;;;;;;;;18.25;18.25;;;;;11.70;72.51;101384.22;5057732;28;70206;-64
2021/12/31 01:13:00;;;;;;;;;19.75;17.25;;;;;11.64;72.41;101382.91;5074510;28;45401;-66
2021/12/31 01:15:45;;;;;;;;;21.00;18.75;;;;;11.59;73.16;101374.56;5059132;28;45457;-64
2021/12/31 01:20:36;;;;;;;;;19.50;16.75;;;;;11.52;73.26;101361.03;5058671;28;45509;-62
2021/12/31 01:23:03;;;;;;;;;27.50;22.00;;;;;11.51;73.39;101355.91;5057696;28;45462;-63
2021/12/31 01:25:28;;;;;;;;;40.25;32.75;;;;;11.47;73.37;101354.47;5057787;28;45343;-65
2021/12/31 01:27:54;;;;;;;;;26.50;23.75;;;;;11.46;73.28;101353.63;5057457;28;45507;-62
2021/12/31 01:30:19;;;;;;;;;16.25;16.00;;;;;11.43;73.21;101357.34;5058542;28;47980;-64
2021/12/31 01:32:45;;;;;;;;;16.50;15.00;;;;;11.43;73.50;101361.75;5057684;28;70519;-65
2021/12/31 01:35:11;;;;;;;;;16.25;14.50;;;;;11.43;73.48;101359.13;5058655;28;45294;-64
2021/12/31 01:37:36;;;;;;;;;21.75;20.75;;;;;11.40;73.49;101362.84;5057573;28;70579;-62
2021/12/31 01:40:02;;;;;;;;;24.00;20.00;;;;;11.35;73.26;101351.84;5058036;28;55313;-63
2021/12/31 01:42:32;;;;;;;;;22.75;15.75;;;;;11.32;73.40;101346.81;5074135;28;45933;-63
2021/12/31 01:45:02;;;;;;;;;19.00;13.75;;;;;11.30;73.23;101351.38;5058574;28;45244;-62
2021/12/31 01:47:35;;;;;;;;;18.25;16.00;;;;;11.26;73.23;101350.78;5057400;28;45359;-63
2021/12/31 01:50:06;;;;;;;;;18.50;15.75;;;;;11.25;73.52;101369.31;5058336;28;45392;-62
2021/12/31 01:52:33;;;;;;;;;24.00;19.00;;;;;11.25;73.56;101379.81;5058305;28;45219;-63
2021/12/31 01:54:58;;;;;;;;;15.25;13.00;;;;;11.24;73.03;101388.66;5057036;28;45458;-64
2021/12/31 01:57:24;;;;;;;;;14.50;14.00;;;;;11.22;73.00;101390.59;5056047;28;70470;-63
2021/12/31 01:59:49;;;;;;;;;14.50;13.00;;;;;11.18;72.74;101392.63;5055738;28;74641;-63
2021/12/31 02:02:15;;;;;;;;;12.00;11.75;;;;;11.13;72.69;101392.16;5056041;28;68964;-64
2021/12/31 02:04:41;;;;;;;;;13.50;13.50;;;;;11.06;72.52;101397.06;5058179;28;45423;-64
2021/12/31 02:07:06;;;;;;;;;15.75;12.25;;;;;11.02;72.33;101392.97;5058132;28;45443;-62
2021/12/31 02:09:37;;;;;;;;;13.50;12.50;;;;;10.97;72.54;101393.31;5057877;28;46345;-63
2021/12/31 02:12:02;;;;;;;;;14.00;11.50;;;;;10.93;71.87;101383.16;5058140;28;45223;-64
2021/12/31 02:14:28;;;;;;;;;14.50;12.00;;;;;10.88;71.95;101382.66;5057976;28;45293;-62
2021/12/31 02:16:54;;;;;;;;;15.25;14.00;;;;;10.82;73.04;101376.09;5058031;28;45224;-64
2021/12/31 02:19:27;;;;;;;;;11.25;11.00;;;;;10.78;72.90;101374.66;5055972;28;45594;-64
2021/12/31 02:21:52;;;;;;;;;10.75;9.75;;;;;10.77;73.25;101373.81;5057903;28;45910;-63
2021/12/31 02:24:19;;;;;;;;;13.25;10.75;;;;;10.77;72.81;101373.81;5057901;28;45396;-65
2021/12/31 02:26:44;;;;;;;;;14.25;11.75;;;;;10.76;72.92;101371.31;5056718;28;45330;-64
2021/12/31 02:29:10;;;;;;;;;16.25;11.00;;;;;10.76;72.81;101376.56;5056256;28;69430;-65
2021/12/31 02:31:35;;;;;;;;;13.75;12.25;;;;;10.75;72.71;101374.91;5056752;28;69116;-63
2021/12/31 02:34:00;;;;;;;;;10.25;7.00;;;;;10.73;73.29;101376.78;5057671;28;45238;-62
2021/12/31 02:36:26;;;;;;;;;11.00;11.00;;;;;10.71;73.12;101371.63;5057751;28;45169;-63
2021/12/31 02:38:51;;;;;;;;;9.00;9.00;;;;;10.71;72.56;101366.38;5056817;28;69972;-65
2021/12/31 02:41:17;;;;;;;;;12.00;11.50;;;;;10.68;72.90;101361.34;5057029;28;56832;-62
2021/12/31 02:43:42;;;;;;;;;14.25;10.50;;;;;10.67;72.77;101362.31;5056496;28;68622;-62
2021/12/31 02:46:07;;;;;;;;;11.00;10.00;;;;;10.66;73.06;101366.75;5073166;28;45485;-63
2021/12/31 02:48:33;;;;;;;;;11.00;9.00;;;;;10.66;73.02;101353.59;5056055;28;45314;-63
2021/12/31 02:50:59;;;;;;;;;10.50;9.75;;;;;10.67;72.88;101343.91;5056099;28;45433;-64
2021/12/31 02:53:30;;;;;;;;;11.50;11.50;;;;;10.67;72.59;101343.91;5057194;28;45370;-65
2021/12/31 02:56:08;;;;;;;;;13.75;10.50;;;;;10.65;72.53;101341.41;5072645;28;45235;-63
2021/12/31 02:58:34;;;;;;;;;11.00;9.00;;;;;10.64;73.08;101339.75;5057228;28;46149;-64
2021/12/31 03:00:59;;;;;;;;;10.75;10.50;;;;;10.63;72.72;101334.59;5057233;28;45248;-65
2021/12/31 03:03:25;;;;;;;;;13.50;11.75;;;;;10.62;72.98;101320.63;5057220;28;45809;-62
2021/12/31 03:05:52;;;;;;;;;10.50;9.25;;;;;10.61;73.06;101318.09;5057212;28;45686;-64
2021/12/31 03:08:17;;;;;;;;;12.00;11.00;;;;;10.59;73.22;101312.16;5072530;28;47394;-61
2021/12/31 03:10:43;;;;;;;;;11.25;9.25;;;;;10.58;73.17;101313.09;5055795;28;45265;-64
2021/12/31 03:13:09;;;;;;;;;16.25;11.25;;;;;10.58;72.96;101313.94;5054850;28;70810;-64
2021/12/31 03:15:35;;;;;;;;;14.25;12.50;;;;;10.58;73.23;101302.59;5057024;28;45319;-64
2021/12/31 03:18:03;;;;;;;;;11.25;11.00;;;;;10.57;72.37;101307.00;5072352;28;49044;-62
2021/12/31 03:20:40;;;;;;;;;11.50;10.00;;;;;10.53;72.95;101298.53;5055559;28;45452;-64
2021/12/31 03:23:06;;;;;;;;;12.00;11.50;;;;;10.53;72.47;101309.03;5071161;28;45358;-63
2021/12/31 03:25:32;;;;;;;;;12.25;12.25;;;;;10.50;72.54;101314.50;5056954;28;45502;-63
2021/12/31 03:27:57;;;;;;;;;20.75;16.50;;;;;10.49;72.36;101319.88;5056619;28;46059;-64
2021/12/31 03:30:22;;;;;;;;;16.00;13.50;;;;;10.44;71.95;101330.75;5055668;28;69521;-65
2021/12/31 03:32:48;;;;;;;;;12.25;12.00;;;;;10.37;72.00;101335.56;5056594;28;45357;-65
2021/12/31 03:35:13;;;;;;;;;11.25;10.50;;;;;10.32;71.89;101347.38;5055719;28;69887;-62
2021/12/31 03:37:39;;;;;;;;;13.00;11.00;;;;;10.28;72.39;101364.31;5072207;28;46959;-61
2021/12/31 03:40:05;;;;;;;;;12.00;10.75;;;;;10.21;72.06;101364.78;5055399;28;69627;-64
2021/12/31 03:42:31;;;;;;;;;15.50;12.25;;;;;10.16;72.32;101361.66;5071614;28;45372;-65
2021/12/31 03:44:56;;;;;;;;;13.75;11.25;;;;;10.13;72.75;101374.19;5056744;28;45375;-64
2021/12/31 03:47:22;;;;;;;;;14.25;11.25;;;;;10.12;72.61;101390.88;5056444;28;45383;-63
2021/12/31 03:49:47;;;;;;;;;10.00;10.00;;;;;10.08;72.33;101388.47;5055607;28;68223;-64
2021/12/31 03:52:12;;;;;;;;;15.75;13.00;;;;;10.06;72.84;101373.81;5055500;28;62100;-63
2021/12/31 03:54:38;;;;;;;;;10.75;10.00;;;;;10.02;72.72;101367.09;5055447;28;65555;-63
2021/12/31 03:57:03;;;;;;;;;13.50;11.25;;;;;10.00;73.06;101355.88;5054323;28;66819;-63
2021/12/31 03:59:29;;;;;;;;;14.25;9.75;;;;;10.00;73.12;101351.44;5056266;28;45346;-63
2021/12/31 04:01:54;;;;;;;;;11.25;10.00;;;;;9.98;73.40;101340.22;5055576;28;61833;-64
2021/12/31 04:04:20;;;;;;;;;17.25;11.25;;;;;9.99;73.17;101343.69;5056287;28;45334;-63
2021/12/31 04:06:45;;;;;;;;;8.75;8.75;;;;;10.00;73.01;101335.69;5055103;28;46706;-64
2021/12/31 04:09:10;;;;;;;;;12.00;10.75;;;;;9.98;73.18;101349.88;5055305;28;68461;-64
2021/12/31 04:11:36;;;;;;;;;17.25;12.50;;;;;9.97;73.13;101349.03;5055493;28;63445;-64
2021/12/31 04:14:01;;;;;;;;;9.75;9.00;;;;;9.95;72.83;101330.78;5055299;28;69654;-64
2021/12/31 04:16:26;;;;;;;;;11.00;10.50;;;;;9.96;72.98;101326.34;5056082;28;45530;-62
2021/12/31 04:18:52;;;;;;;;;10.00;10.00;;;;;9.94;72.90;101318.59;5055586;28;58731;-63
2021/12/31 04:21:19;;;;;;;;;13.00;11.25;;;;;9.91;72.26;101326.69;5055503;28;64626;-62
2021/12/31 04:24:03;;;;;;;;;14.50;13.75;;;;;9.89;72.70;101317.25;5056246;28;45492;-63
2021/12/31 04:26:29;;;;;;;;;15.00;10.00;;;;;9.86;72.52;101310.44;5069399;28;45532;-63
2021/12/31 04:28:54;;;;;;;;;14.00;11.50;;;;;9.84;72.97;101320.22;5053895;28;66185;-62
2021/12/31 04:31:19;;;;;;;;;15.00;10.50;;;;;9.84;72.63;101330.72;5055385;28;63272;-62
2021/12/31 04:33:45;;;;;;;;;9.75;9.75;;;;;9.83;72.91;101322.94;5055117;28;67591;-61
2021/12/31 04:36:12;;;;;;;;;15.75;10.00;;;;;9.80;72.78;101324.00;5055459;28;46822;-62
2021/12/31 04:38:37;;;;;;;;;14.75;9.50;;;;;9.79;73.19;101319.72;5054759;28;45420;-65
2021/12/31 04:41:03;;;;;;;;;13.75;11.75;;;;;9.78;72.95;101305.78;5055543;28;47004;-61
2021/12/31 04:43:28;;;;;;;;;14.25;11.50;;;;;9.79;72.98;101319.72;5055748;28;45455;-63
2021/12/31 04:45:54;;;;;;;;;12.75;11.25;;;;;9.77;72.97;101304.09;5055541;28;45505;-64
2021/12/31 04:48:19;;;;;;;;;16.00;12.50;;;;;9.77;72.96;101300.63;5055164;28;54303;-63
2021/12/31 04:50:44;;;;;;;;;14.75;14.75;;;;;9.78;73.47;101307.53;5054637;28;64170;-64
2021/12/31 04:53:10;;;;;;;;;16.50;13.00;;;;;9.78;73.09;101299.66;5057180;28;65953;-63
2021/12/31 04:55:35;;;;;;;;;12.75;10.75;;;;;9.76;73.53;101291.91;5058752;28;46376;-61
2021/12/31 04:58:00;;;;;;;;;11.00;9.75;;;;;9.74;73.58;101287.72;5058472;28;62766;-63
2021/12/31 05:00:26;;;;;;;;;16.00;12.25;;;;;9.74;73.34;101283.31;5059188;28;45649;-63
2021/12/31 05:02:51;;;;;;;;;11.75;11.00;;;;;9.72;73.53;101289.63;5057344;28;58314;-62
2021/12/31 05:05:17;;;;;;;;;16.50;11.50;;;;;9.69;73.62;101301.19;5059001;28;45427;-64
2021/12/31 05:07:42;;;;;;;;;16.00;12.25;;;;;9.68;73.53;101298.66;5057878;28;73197;-63
2021/12/31 05:10:08;;;;;;;;;11.00;11.00;;;;;9.67;73.95;101295.22;5058871;28;45225;-63
2021/12/31 05:12:36;;;;;;;;;13.00;13.00;;;;;9.66;73.97;101301.41;5057794;28;45504;-64
2021/12/31 05:15:02;;;;;;;;;14.00;11.00;;;;;9.67;73.79;101304.84;5058783;28;45321;-62
2021/12/31 05:17:28;;;;;;;;;12.00;11.25;;;;;9.65;73.92;101307.59;5058788;28;45998;-61
2021/12/31 05:19:54;;;;;;;;;11.75;11.00;;;;;9.65;73.96;101307.59;5058096;28;62076;-64
2021/12/31 05:22:19;;;;;;;;;9.50;9.50;;;;;9.65;73.94;101297.09;5058868;28;45362;-64
2021/12/31 05:24:45;;;;;;;;;9.25;8.50;;;;;9.66;73.58;101306.66;5057789;28;70305;-63
2021/12/31 05:27:10;;;;;;;;;13.25;7.75;;;;;9.65;73.58;101305.81;5058716;28;45404;-63
2021/12/31 05:29:35;;;;;;;;;10.50;10.00;;;;;9.64;73.57;101309.38;5074328;28;45540;-64
2021/12/31 05:32:01;;;;;;;;;11.75;9.00;;;;;9.64;73.51;101314.63;5074234;28;45460;-64
2021/12/31 05:34:26;;;;;;;;;9.75;9.75;;;;;9.64;73.03;101305.94;5058415;28;45425;-64
2021/12/31 05:36:52;;;;;;;;;8.75;7.75;;;;;9.62;72.82;101298.16;5058544;28;45544;-62
2021/12/31 05:39:17;;;;;;;;;10.00;8.75;;;;;9.60;72.71;101294.78;5057615;28;63898;-63
2021/12/31 05:41:42;;;;;;;;;11.25;9.00;;;;;9.58;72.46;101304.56;5073439;28;62894;-64
2021/12/31 05:44:08;;;;;;;;;10.50;6.50;;;;;9.56;72.37;101282.03;5058213;28;46101;-62
2021/12/31 05:46:33;;;;;;;;;19.00;16.00;;;;;9.50;72.38;101276.28;5073508;28;54712;-63
2021/12/31 05:48:59;;;;;;;;;15.00;12.75;;;;;9.46;72.20;101281.88;5058233;28;45379;-64
2021/12/31 05:51:26;;;;;;;;;15.25;12.50;;;;;9.44;72.31;101276.72;5057512;28;60508;-63
2021/12/31 05:53:52;;;;;;;;;10.75;9.50;;;;;9.39;72.31;101270.13;5058033;28;45383;-62
2021/12/31 05:56:17;;;;;;;;;11.50;11.50;;;;;9.34;72.71;101266.06;5058172;28;45361;-62
2021/12/31 05:58:42;;;;;;;;;13.50;12.50;;;;;9.32;73.07;101262.69;5073619;28;47343;-65
2021/12/31 06:01:08;;;;;;;;;8.50;8.50;;;;;9.32;73.39;101267.09;5057451;28;63678;-63
2021/12/31 06:03:33;;;;;;;;;8.75;8.25;;;;;9.29;73.16;101255.03;5056341;28;71716;-62
2021/12/31 06:05:59;;;;;;;;;10.25;10.25;;;;;9.29;73.26;101251.56;5073584;28;45321;-63
2021/12/31 06:08:24;;;;;;;;;12.00;8.75;;;;;9.28;73.54;101247.28;5057423;28;60766;-63
2021/12/31 06:10:49;;;;;;;;;12.50;10.50;;;;;9.28;73.53;101261.25;5057305;28;57626;-63
2021/12/31 06:13:15;;;;;;;;;9.75;8.00;;;;;9.27;73.38;101270.06;5056689;28;69849;-62
2021/12/31 06:15:42;;;;;;;;;9.00;9.00;;;;;9.28;73.43;101284.84;5055574;28;70349;-63
2021/12/31 06:18:08;;;;;;;;;10.25;9.00;;;;;9.27;73.73;101291.03;5057866;28;45306;-64
2021/12/31 06:20:34;;;;;;;;;8.50;7.00;;;;;9.26;73.54;101288.53;5073443;28;45599;-63
2021/12/31 06:23:00;;;;;;;;;9.75;8.00;;;;;9.24;73.63;101280.75;5056289;28;45436;-63
2021/12/31 06:25:26;;;;;;;;;9.50;8.00;;;;;9.22;73.79;101293.13;5056680;28;65699;-61
2021/12/31 06:27:51;;;;;;;;;7.75;7.75;;;;;9.22;73.74;101292.31;5056517;28;45418;-63
2021/12/31 06:30:17;;;;;;;;;13.00;8.00;;;;;9.23;74.29;101294.00;5057504;28;45387;-65
2021/12/31 06:32:42;;;;;;;;;9.75;8.00;;;;;9.24;73.93;101288.63;5056390;28;74904;-61
2021/12/31 06:35:07;;;;;;;;;8.75;7.25;;;;;9.25;73.96;101282.44;5055226;28;72384;-63
2021/12/31 06:37:33;;;;;;;;;6.75;6.75;;;;;9.26;74.11;101281.50;5057439;28;45319;-64
2021/12/31 06:40:03;;;;;;;;;7.50;7.00;;;;;9.28;74.37;101281.38;5057184;28;45320;-62
2021/12/31 06:42:29;;;;;;;;;8.25;6.00;;;;;9.30;74.32;101280.31;5057461;28;45253;-62
2021/12/31 06:44:54;;;;;;;;;5.50;5.00;;;;;9.31;74.33;101284.63;5056464;28;66243;-62
2021/12/31 06:47:19;;;;;;;;;6.75;6.75;;;;;9.31;74.22;101297.75;5056874;28;55754;-61
2021/12/31 06:49:45;;;;;;;;;9.50;7.00;;;;;9.32;73.95;101302.03;5056566;28;61834;-61
2021/12/31 06:52:10;;;;;;;;;10.50;9.50;;;;;9.32;74.05;101294.16;5056273;28;64736;-63
2021/12/31 06:54:36;;;;;;;;;11.25;10.00;;;;;9.34;74.26;101287.03;5055892;28;68734;-64
2021/12/31 06:57:03;;;;;;;;;7.50;7.50;;;;;9.35;74.46;101291.34;5057439;28;45391;-64
2021/12/31 06:59:29;;;;;;;;;12.75;8.00;;;;;9.39;74.33;101305.06;5057226;28;45432;-61
2021/12/31 07:01:55;;;;;;;;;9.75;8.00;;;;;9.40;74.37;101308.53;5055903;28;46419;-62
2021/12/31 07:04:20;;;;;;;;;6.50;6.50;;;;;9.41;74.06;101323.31;5057014;28;45390;-62
2021/12/31 07:06:45;;;;;;;;;10.00;8.00;;;;;9.40;73.79;101309.34;5056283;28;65368;-62
2021/12/31 07:09:11;;;;;;;;;44.50;38.25;;;;;9.40;74.20;101296.22;5056999;28;45447;-62
2021/12/31 07:11:36;;;;;;;;;12.25;11.50;;;;;9.40;73.57;101295.41;5055744;28;73535;-62
2021/12/31 07:14:02;;;;;;;;;14.75;13.75;;;;;9.40;73.65;101279.69;5056857;28;45433;-62
2021/12/31 07:16:27;;;;;;;;;9.00;6.00;;;;;9.38;73.62;101298.13;5056744;28;45370;-62
2021/12/31 07:18:52;;;;;;;;;9.75;7.25;;;;;9.38;73.54;101318.28;5055880;28;62215;-62
2021/12/31 07:21:18;;;;;;;;;7.00;6.25;;;;;9.38;73.48;101323.53;5055661;28;71047;-61
2021/12/31 07:23:43;;;;;;;;;8.50;7.00;;;;;9.32;73.79;101328.25;5055648;28;73503;-63
2021/12/31 07:26:09;;;;;;;;;9.75;6.75;;;;;9.30;73.79;101332.78;5056070;28;60634;-64
2021/12/31 07:28:34;;;;;;;;;10.00;7.75;;;;;9.29;74.56;101325.00;5056158;28;58803;-62
2021/12/31 07:31:00;;;;;;;;;11.75;7.75;;;;;9.31;74.80;101317.88;5056393;28;46437;-63
2021/12/31 07:33:25;;;;;;;;;8.25;7.50;;;;;9.32;74.51;101323.03;5056571;28;45354;-62
2021/12/31 07:35:51;;;;;;;;;7.75;7.50;;;;;9.35;74.58;101322.81;5056694;28;45246;-61
2021/12/31 07:38:28;;;;;;;;;9.75;8.00;;;;;9.37;74.64;101327.94;5056650;28;45409;-61
2021/12/31 07:40:53;;;;;;;;;9.00;7.75;;;;;9.38;74.75;101340.09;5054959;28;47405;-63
2021/12/31 07:43:20;;;;;;;;;10.50;7.00;;;;;9.40;74.41;101345.25;5055451;28;70482;-63
2021/12/31 07:45:45;;;;;;;;;12.00;7.75;;;;;9.41;74.43;101344.31;5056674;28;45364;-63
2021/12/31 07:48:11;;;;;;;;;7.25;7.25;;;;;9.42;74.27;101345.97;5071392;28;66970;-64
2021/12/31 07:50:36;;;;;;;;;11.00;9.25;;;;;9.43;74.56;101351.09;5055009;28;46003;-63
2021/12/31 07:53:05;;;;;;;;;7.75;6.50;;;;;9.46;74.41;101334.31;5056214;28;45351;-63
2021/12/31 07:55:31;;;;;;;;;9.75;6.50;;;;;9.44;74.31;101333.59;5054621;28;45245;-62
2021/12/31 07:57:56;;;;;;;;;9.25;8.25;;;;;9.44;74.20;101328.34;5056073;28;45505;-63
2021/12/31 08:00:21;;;;;;;;;9.25;7.00;;;;;9.46;74.54;101329.06;5056132;28;45363;-64
2021/12/31 08:02:47;;;;;;;;;9.25;8.25;;;;;9.47;74.61;101336.00;5054506;28;59433;-63
2021/12/31 08:05:12;;;;;;;;;8.75;8.00;;;;;9.48;74.79;101330.63;5055886;28;47344;-63
2021/12/31 08:07:38;;;;;;;;;7.25;7.25;;;;;9.50;75.10;101341.84;5056240;28;45312;-61
2021/12/31 08:10:04;;;;;;;;;10.00;8.00;;;;;9.54;74.83;101349.50;5055967;28;45466;-61
2021/12/31 08:12:29;;;;;;;;;10.50;9.75;;;;;9.56;74.40;101337.94;5056010;28;45435;-61
2021/12/31 08:14:55;;;;;;;;;11.75;11.00;;;;;9.58;74.83;101336.06;5056090;28;45487;-64
2021/12/31 08:17:20;;;;;;;;;9.75;7.25;;;;;9.61;74.83;101329.75;5054889;28;45501;-62
2021/12/31 08:19:45;;;;;;;;;11.75;8.00;;;;;9.62;74.89;101337.50;5054904;28;70841;-62
2021/12/31 08:22:11;;;;;;;;;14.75;12.25;;;;;9.65;75.31;101331.22;5055069;28;70377;-62
2021/12/31 08:24:36;;;;;;;;;17.00;15.50;;;;;9.70;75.23;101359.75;5054468;28;45460;-61
2021/12/31 08:27:02;;;;;;;;;16.00;13.00;;;;;9.72;75.50;101353.44;5056052;28;50482;-62
2021/12/31 08:29:27;;;;;;;;;15.25;13.00;;;;;9.78;75.20;101367.91;5074459;28;51076;-63
2021/12/31 08:31:52;;;;;;;;;14.50;12.50;;;;;9.82;75.11;101364.13;5058442;28;64281;-61
2021/12/31 08:34:18;;;;;;;;;20.00;19.25;;;;;9.86;75.22;101351.59;5058605;28;62551;-63
2021/12/31 08:36:43;;;;;;;;;17.50;16.00;;;;;9.90;75.12;101363.53;5057020;28;70330;-62
2021/12/31 08:39:09;;;;;;;;;15.25;12.25;;;;;9.94;75.27;101373.72;5057902;28;74117;-62
2021/12/31 08:41:35;;;;;;;;;17.00;13.50;;;;;9.97;75.47;101367.41;5059152;28;45847;-63
2021/12/31 08:44:01;;;;;;;;;11.25;10.50;;;;;10.01;75.41;101362.78;5058014;28;45345;-62
2021/12/31 08:46:26;;;;;;;;;17.25;14.00;;;;;10.05;75.36;101362.44;5058189;28;66141;-62
2021/12/31 08:48:52;;;;;;;;;13.25;10.50;;;;;10.10;75.49;101346.34;5054273;28;72919;-64
2021/12/31 08:51:17;;;;;;;;;14.75;12.25;;;;;10.16;75.63;101361.66;5057506;28;45579;-63
2021/12/31 08:53:43;;;;;;;;;13.25;11.25;;;;;10.22;76.09;101371.69;5042970;28;49865;-65
2021/12/31 08:56:08;;;;;;;;;15.00;14.50;;;;;10.28;75.78;101364.31;5045513;28;59560;-63
2021/12/31 08:58:34;;;;;;;;;16.75;15.25;;;;;10.34;75.51;101366.50;5047687;28;45496;-63
2021/12/31 09:01:00;;;;;;;;;13.50;11.25;;;;;10.39;75.86;101361.78;5049411;28;66940;-62
2021/12/31 09:03:25;;;;;;;;;9.75;9.75;;;;;10.45;75.60;101374.47;5051614;28;47405;-63
2021/12/31 09:05:50;;;;;;;;;11.00;7.50;;;;;10.52;75.66;101373.03;5052267;28;62383;-62
2021/12/31 09:08:16;;;;;;;;;10.00;10.00;;;;;10.58;75.20;101365.66;5051414;28;71687;-61
2021/12/31 09:10:41;;;;;;;;;10.75;10.00;;;;;10.64;75.04;101371.28;5062550;28;45524;-61
2021/12/31 09:13:07;;;;;;;;;10.00;9.75;;;;;10.69;74.72;101363.03;5051551;28;45335;-65
2021/12/31 09:15:32;;;;;;;;;11.00;10.00;;;;;10.73;74.86;101358.41;5050393;28;45435;-62
2021/12/31 09:17:58;;;;;;;;;11.25;10.50;;;;;10.76;74.75;101352.91;5049303;28;72857;-64
2021/12/31 09:20:23;;;;;;;;;11.00;10.00;;;;;10.78;74.67;101358.88;5048994;28;64442;-64
2021/12/31 09:22:48;;;;;;;;;12.00;8.00;;;;;10.79;74.42;101374.53;5049849;28;68968;-62
2021/12/31 09:25:15;;;;;;;;;9.00;8.00;;;;;10.82;74.60;101395.31;5047865;28;45775;-63
2021/12/31 09:27:40;;;;;;;;;8.00;7.50;;;;;10.86;74.52;101411.72;5061496;28;46396;-62
2021/12/31 09:30:06;;;;;;;;;9.50;8.25;;;;;10.92;74.68;101405.16;5044797;28;67611;-64
2021/12/31 09:32:31;;;;;;;;;15.75;10.50;;;;;10.95;74.31;101399.66;5049543;28;45504;-63
2021/12/31 09:34:58;;;;;;;;;12.25;9.75;;;;;10.99;73.89;101382.69;5046394;28;45803;-64
2021/12/31 09:37:24;;;;;;;;;12.25;10.25;;;;;11.02;73.96;101395.59;5045012;28;46202;-64
2021/12/31 09:39:49;;;;;;;;;12.00;9.50;;;;;11.04;73.93;101404.22;5043619;28;69213;-64
2021/12/31 09:42:14;;;;;;;;;11.50;10.00;;;;;11.06;74.01;101401.47;5045851;28;62198;-63
2021/12/31 09:44:40;;;;;;;;;13.50;10.00;;;;;11.07;74.18;101400.50;5049296;28;45679;-63
2021/12/31 09:47:09;;;;;;;;;10.25;10.25;;;;;11.09;74.11;101406.47;5048055;28;46421;-63
2021/12/31 09:49:35;;;;;;;;;9.50;8.50;;;;;11.10;73.75;101406.38;5043503;28;45266;-63
2021/12/31 09:52:01;;;;;;;;;11.50;10.50;;;;;11.14;73.70;101402.53;5047010;28;45208;-64
2021/12/31 09:54:26;;;;;;;;;11.75;10.00;;;;;11.26;74.01;101399.91;5058243;28;45522;-62
2021/12/31 09:56:52;;;;;;;;;13.25;11.25;;;;;11.39;73.74;101411.16;5041986;28;73744;-62
2021/12/31 09:59:17;;;;;;;;;13.25;11.50;;;;;11.58;74.13;101415.00;5046197;28;45444;-64
2021/12/31 10:01:47;;;;;;;;;13.75;10.75;;;;;11.80;73.55;101429.06;5048771;28;60765;-62
2021/12/31 10:04:12;;;;;;;;;11.75;11.00;;;;;12.06;72.44;101440.19;5048813;28;45500;-60
2021/12/31 10:06:37;;;;;;;;;11.00;11.00;;;;;12.31;72.34;101452.19;5063732;28;46163;-63
2021/12/31 10:09:03;;;;;;;;;10.50;9.00;;;;;12.60;71.71;101451.63;5045267;28;72288;-65
2021/12/31 10:11:28;;;;;;;;;14.00;10.75;;;;;12.87;71.41;101452.09;5061032;28;45501;-63
2021/12/31 10:13:56;;;;;;;;;13.50;12.00;;;;;13.14;69.94;101461.28;5062667;28;47157;-62
2021/12/31 10:16:33;;;;;;;;;15.00;14.00;;;;;13.41;70.01;101451.97;5047384;28;45437;-62
2021/12/31 10:19:18;;;;;;;;;14.50;12.25;;;;;13.70;69.35;101456.56;5028629;28;45570;-63
2021/12/31 10:21:49;;;;;;;;;18.25;14.25;;;;;13.97;67.98;101444.56;5042670;28;45399;-64
2021/12/31 10:24:21;;;;;;;;;16.50;14.25;;;;;14.20;67.51;101445.97;5047343;28;45199;-63
2021/12/31 10:26:46;;;;;;;;;15.00;13.00;;;;;14.42;66.45;101440.53;5046762;28;46631;-64
2021/12/31 10:29:13;;;;;;;;;16.00;13.00;;;;;14.65;65.63;101433.16;5044626;28;45454;-64
2021/12/31 10:31:43;;;;;;;;;9.25;7.00;;;;;14.85;65.00;101428.69;5046625;28;61313;-64
2021/12/31 10:34:33;;;;;;;;;16.00;16.00;;;;;15.02;63.76;101428.94;5047969;28;45444;-64
2021/12/31 10:37:26;;;;;;;;;12.00;12.00;;;;;15.18;63.70;101430.97;5061582;28;46287;-64
2021/12/31 10:40:00;;;;;;;;;10.50;10.50;;;;;15.31;63.10;101450.03;5041049;28;45491;-65
2021/12/31 10:42:32;;;;;;;;;12.25;12.25;;;;;15.39;62.65;101467.84;5066176;28;45484;-65
2021/12/31 10:44:57;;;;;;;;;14.50;13.00;;;;;15.48;62.58;101498.75;5050228;28;45688;-64
2021/12/31 10:47:30;;;;;;;;;11.75;11.50;;;;;15.56;62.42;101495.41;5051800;28;46223;-65
2021/12/31 10:50:05;;;;;;;;;12.00;12.00;;;;;15.63;61.99;101500.94;5042078;28;45665;-63
2021/12/31 10:52:57;;;;;;;;;24.50;21.00;;;;;15.68;61.98;101503.97;5047414;28;46514;-65
2021/12/31 10:55:30;;;;;;;;;16.50;14.00;;;;;15.72;61.87;101523.91;5041154;28;46434;-65
2021/12/31 10:57:57;;;;;;;;;17.25;15.50;;;;;15.74;61.38;101524.59;5043786;28;45592;-64
2021/12/31 11:00:24;;;;;;;;;16.75;14.50;;;;;15.71;61.45;101520.41;5046282;28;45916;-64
2021/12/31 11:02:49;;;;;;;;;14.00;12.25;;;;;15.70;61.25;101512.63;5048774;28;45473;-64
2021/12/31 11:05:19;;;;;;;;;19.75;13.50;;;;;15.68;61.30;101503.97;5051477;28;45560;-62
2021/12/31 11:07:44;;;;;;;;;10.25;9.50;;;;;15.67;61.12;101491.72;5049637;28;46383;-64
2021/12/31 11:10:10;;;;;;;;;9.50;8.50;;;;;15.68;61.00;101496.03;5047208;28;45454;-62
2021/12/31 11:12:35;;;;;;;;;11.50;9.50;;;;;15.63;60.85;101490.34;5045514;28;45355;-65
2021/12/31 11:15:01;;;;;;;;;12.50;11.25;;;;;15.57;61.14;101497.88;5047029;28;45473;-61
2021/12/31 11:17:27;;;;;;;;;12.50;11.75;;;;;15.55;61.26;101510.44;5041407;28;45509;-62